Time,TemperatureF,DewpointF,PressureIn,WindDirection,WindDirectionDegrees,WindSpeedMPH,WindSpeedGustMPH,Humidity,HourlyPrecipIn,Conditions,Clouds,dailyrainin,SoftwareType,DateUTC
2013-06-14 00:03:00,63.0,54.1,29.93,East,90,5.0,5.0,73,0.00,,,0.00,meteohub,2013-06-14 05:03:00,
2013-06-14 00:08:00,63.0,53.8,29.92,East,90,5.0,6.0,72,0.00,,,0.00,meteohub,2013-06-14 05:08:00,
2013-06-14 00:13:00,63.0,53.8,29.93,East,90,5.0,6.0,72,0.00,,,0.00,meteohub,2013-06-14 05:13:00,
2013-06-14 00:18:00,63.1,54.3,29.93,East,90,7.0,7.0,73,0.00,,,0.00,meteohub,2013-06-14 05:18:00,
2013-06-14 00:23:00,63.7,54.9,29.94,SE,135,8.0,9.0,73,0.00,,,0.00,meteohub,2013-06-14 05:23:00,
2013-06-14 00:28:00,63.7,54.9,29.93,East,90,8.0,9.0,73,0.00,,,0.00,meteohub,2013-06-14 05:28:00,
2013-06-14 00:33:00,63.9,55.0,29.93,SE,135,6.0,9.0,73,0.00,,,0.00,meteohub,2013-06-14 05:33:00,
2013-06-14 00:38:00,63.9,55.0,29.94,SE,135,8.0,8.0,73,0.00,,,0.00,meteohub,2013-06-14 05:38:00,
2013-06-14 00:43:00,64.2,55.4,29.94,SE,135,8.0,10.0,73,0.00,,,0.00,meteohub,2013-06-14 05:43:00,
2013-06-14 00:48:00,64.6,55.8,29.94,SE,135,6.0,10.0,73,0.00,,,0.00,meteohub,2013-06-14 05:48:00,
2013-06-14 00:53:00,64.6,55.8,29.94,SE,135,9.0,10.0,73,0.00,,,0.00,meteohub,2013-06-14 05:53:00,
2013-06-14 00:58:00,64.8,55.9,29.93,SE,135,7.0,10.0,73,0.00,,,0.00,meteohub,2013-06-14 05:58:00,
2013-06-14 01:03:00,64.8,55.6,29.93,East,90,8.0,10.0,72,0.00,,,0.00,meteohub,2013-06-14 06:03:00,
2013-06-14 01:09:00,64.0,54.9,29.92,East,90,5.0,9.0,72,0.00,,,0.00,meteohub,2013-06-14 06:09:00,
2013-06-14 01:14:00,63.5,54.7,29.92,East,90,7.0,9.0,73,0.00,,,0.00,meteohub,2013-06-14 06:14:00,
2013-06-14 01:19:00,63.3,54.9,29.92,East,90,8.0,8.0,74,0.00,,,0.00,meteohub,2013-06-14 06:19:00,
2013-06-14 01:24:00,63.5,55.0,29.92,SE,135,8.0,10.0,74,0.00,,,0.00,meteohub,2013-06-14 06:24:00,
2013-06-14 01:29:00,63.7,55.2,29.93,SE,135,8.0,10.0,74,0.00,,,0.00,meteohub,2013-06-14 06:29:00,
2013-06-14 01:34:00,63.7,55.2,29.93,SE,135,8.0,10.0,74,0.00,,,0.00,meteohub,2013-06-14 06:34:00,
2013-06-14 01:39:00,63.7,55.2,29.94,ESE,113,8.0,10.0,74,0.00,,,0.00,meteohub,2013-06-14 06:39:00,
2013-06-14 01:44:00,63.9,55.4,29.94,SE,135,8.0,10.0,74,0.00,,,0.00,meteohub,2013-06-14 06:44:00,
2013-06-14 01:49:00,63.9,55.4,29.94,SSE,158,8.0,9.0,74,0.00,,,0.00,meteohub,2013-06-14 06:49:00,
2013-06-14 01:54:00,63.9,55.4,29.94,SE,135,4.0,9.0,74,0.00,,,0.00,meteohub,2013-06-14 06:54:00,
2013-06-14 01:59:00,63.5,55.0,29.94,SE,135,4.0,9.0,74,0.00,,,0.00,meteohub,2013-06-14 06:59:00,
2013-06-14 02:04:00,63.1,54.7,29.93,SE,135,4.0,9.0,74,0.00,,,0.00,meteohub,2013-06-14 07:04:00,
2013-06-14 02:09:00,62.8,54.3,29.92,SE,135,8.0,8.0,74,0.00,,,0.00,meteohub,2013-06-14 07:09:00,
2013-06-14 02:14:00,63.0,54.9,29.93,East,90,5.0,8.0,75,0.00,,,0.00,meteohub,2013-06-14 07:14:00,
2013-06-14 02:19:00,63.1,55.0,29.93,East,90,4.0,8.0,75,0.00,,,0.00,meteohub,2013-06-14 07:19:00,
2013-06-14 02:24:00,62.8,54.7,29.92,East,90,5.0,8.0,75,0.00,,,0.00,meteohub,2013-06-14 07:24:00,
2013-06-14 02:30:00,62.4,54.7,29.93,East,90,4.0,8.0,76,0.00,,,0.00,meteohub,2013-06-14 07:30:00,
2013-06-14 02:35:00,62.4,54.7,29.93,East,90,4.0,7.0,76,0.00,,,0.00,meteohub,2013-06-14 07:35:00,
2013-06-14 02:40:00,62.4,55.0,29.93,SE,135,4.0,5.0,77,0.00,,,0.00,meteohub,2013-06-14 07:40:00,
2013-06-14 02:45:00,62.2,54.9,29.93,SE,135,7.0,7.0,77,0.00,,,0.00,meteohub,2013-06-14 07:45:00,
2013-06-14 02:50:00,62.2,54.9,29.94,SE,135,5.0,8.0,77,0.00,,,0.00,meteohub,2013-06-14 07:50:00,
2013-06-14 02:55:00,62.1,55.0,29.94,SE,135,4.0,8.0,78,0.00,,,0.00,meteohub,2013-06-14 07:55:00,
2013-06-14 03:00:00,61.9,54.9,29.94,SE,135,5.0,8.0,78,0.00,,,0.00,meteohub,2013-06-14 08:00:00,
2013-06-14 03:05:00,61.5,54.9,29.94,SE,135,4.0,6.0,79,0.00,,,0.00,meteohub,2013-06-14 08:05:00,
2013-06-14 03:10:00,61.3,54.9,29.94,SE,135,4.0,6.0,79,0.00,,,0.00,meteohub,2013-06-14 08:10:00,
2013-06-14 03:15:00,61.2,54.7,29.93,SE,135,7.0,7.0,79,0.00,,,0.00,meteohub,2013-06-14 08:15:00,
2013-06-14 03:20:00,61.2,54.7,29.92,SE,135,10.0,11.0,79,0.00,,,0.00,meteohub,2013-06-14 08:20:00,
2013-06-14 03:25:00,61.3,54.9,29.92,SE,135,9.0,11.0,79,0.00,,,0.00,meteohub,2013-06-14 08:25:00,
2013-06-14 03:31:00,61.5,55.2,29.91,SE,135,13.0,13.0,80,0.00,,,0.00,meteohub,2013-06-14 08:31:00,
2013-06-14 03:36:00,61.9,55.6,29.90,SE,135,11.0,13.0,80,0.00,,,0.00,meteohub,2013-06-14 08:36:00,
2013-06-14 03:41:00,62.2,55.6,29.89,South,180,14.0,14.0,79,0.00,,,0.00,meteohub,2013-06-14 08:41:00,
2013-06-14 03:46:00,62.6,55.6,29.89,SE,135,17.0,17.0,78,0.00,,,0.00,meteohub,2013-06-14 08:46:00,
2013-06-14 03:51:00,62.6,55.2,29.88,SE,135,15.0,17.0,77,0.00,,,0.00,meteohub,2013-06-14 08:51:00,
2013-06-14 03:56:00,62.8,55.0,29.86,SE,135,16.0,19.0,76,0.00,,,0.00,meteohub,2013-06-14 08:56:00,
2013-06-14 04:01:00,63.0,55.2,29.87,SE,135,18.0,19.0,76,0.00,,,0.00,meteohub,2013-06-14 09:01:00,
2013-06-14 04:06:00,63.1,55.0,29.88,SE,135,17.0,19.0,75,0.00,,,0.00,meteohub,2013-06-14 09:06:00,
2013-06-14 04:11:00,63.3,54.9,29.87,SE,135,13.0,18.0,74,0.00,,,0.00,meteohub,2013-06-14 09:11:00,
2013-06-14 04:16:00,63.1,54.7,29.87,SE,135,17.0,18.0,74,0.00,,,0.00,meteohub,2013-06-14 09:16:00,
2013-06-14 04:21:00,63.1,54.3,29.87,SE,135,15.0,17.0,73,0.00,,,0.00,meteohub,2013-06-14 09:21:00,
2013-06-14 04:26:00,63.1,54.3,29.88,SE,135,15.0,18.0,73,0.00,,,0.00,meteohub,2013-06-14 09:26:00,
2013-06-14 04:31:00,63.0,54.1,29.88,ESE,113,11.0,18.0,73,0.00,,,0.00,meteohub,2013-06-14 09:31:00,
2013-06-14 04:36:00,62.8,54.3,29.86,SE,135,17.0,17.0,74,0.00,,,0.00,meteohub,2013-06-14 09:36:00,
2013-06-14 04:41:00,63.0,54.5,29.85,SE,135,17.0,17.0,74,0.00,,,0.00,meteohub,2013-06-14 09:41:00,
2013-06-14 04:46:00,63.0,54.5,29.86,SE,135,15.0,17.0,74,0.00,,,0.00,meteohub,2013-06-14 09:46:00,
2013-06-14 04:52:00,62.8,54.0,29.86,SE,135,15.0,17.0,73,0.00,,,0.00,meteohub,2013-06-14 09:52:00,
2013-06-14 04:57:00,62.8,54.3,29.87,SE,135,9.0,17.0,74,0.00,,,0.00,meteohub,2013-06-14 09:57:00,
2013-06-14 05:02:00,62.6,54.1,29.87,SE,135,11.0,17.0,74,0.00,,,0.00,meteohub,2013-06-14 10:02:00,
2013-06-14 05:07:00,62.2,54.1,29.87,SE,135,8.0,15.0,75,0.00,,,0.00,meteohub,2013-06-14 10:07:00,
2013-06-14 05:12:00,61.7,53.8,29.87,East,90,7.0,15.0,75,0.00,,,0.00,meteohub,2013-06-14 10:12:00,
2013-06-14 05:17:00,61.7,54.1,29.87,SE,135,5.0,12.0,76,0.00,,,0.00,meteohub,2013-06-14 10:17:00,
2013-06-14 05:22:00,61.5,54.0,29.88,SE,135,6.0,10.0,76,0.00,,,0.00,meteohub,2013-06-14 10:22:00,
2013-06-14 05:27:00,61.2,53.6,29.86,SE,135,8.0,10.0,76,0.00,,,0.00,meteohub,2013-06-14 10:27:00,
2013-06-14 05:32:00,61.3,54.1,29.86,SE,135,9.0,11.0,77,0.00,,,0.00,meteohub,2013-06-14 10:32:00,
2013-06-14 05:37:00,61.5,54.7,29.86,SE,135,4.0,11.0,78,0.00,,,0.00,meteohub,2013-06-14 10:37:00,
2013-06-14 05:42:00,61.5,54.7,29.87,SE,135,9.0,11.0,78,0.00,,,0.00,meteohub,2013-06-14 10:42:00,
2013-06-14 05:47:00,61.9,54.9,29.87,SE,135,9.0,11.0,78,0.00,,,0.00,meteohub,2013-06-14 10:47:00,
2013-06-14 05:52:00,61.7,54.9,29.87,SE,135,11.0,11.0,78,0.00,,,0.00,meteohub,2013-06-14 10:52:00,
2013-06-14 05:58:00,61.7,54.9,29.87,SE,135,8.0,11.0,78,0.00,,,0.00,meteohub,2013-06-14 10:58:00,
2013-06-14 06:03:00,61.7,54.9,29.88,SE,135,8.0,11.0,78,0.00,,,0.00,meteohub,2013-06-14 11:03:00,
2013-06-14 06:08:00,61.7,55.0,29.88,SE,135,10.0,11.0,79,0.00,,,0.00,meteohub,2013-06-14 11:08:00,
2013-06-14 06:13:00,61.5,54.9,29.87,SE,135,10.0,10.0,79,0.00,,,0.00,meteohub,2013-06-14 11:13:00,
2013-06-14 06:18:00,61.9,55.2,29.87,East,90,11.0,12.0,79,0.00,,,0.00,meteohub,2013-06-14 11:18:00,
2013-06-14 06:23:00,62.1,55.4,29.87,SE,135,11.0,15.0,79,0.00,,,0.00,meteohub,2013-06-14 11:23:00,
2013-06-14 06:28:00,62.2,55.6,29.88,SE,135,11.0,15.0,79,0.00,,,0.00,meteohub,2013-06-14 11:28:00,
2013-06-14 06:33:00,62.2,55.6,29.88,SE,135,9.0,14.0,79,0.00,,,0.00,meteohub,2013-06-14 11:33:00,
2013-06-14 06:38:00,62.2,55.6,29.88,SE,135,11.0,13.0,79,0.00,,,0.00,meteohub,2013-06-14 11:38:00,
2013-06-14 06:43:00,62.2,55.6,29.88,SE,135,10.0,15.0,79,0.00,,,0.00,meteohub,2013-06-14 11:43:00,
2013-06-14 06:48:00,62.2,55.6,29.88,SE,135,10.0,15.0,79,0.00,,,0.00,meteohub,2013-06-14 11:48:00,
2013-06-14 06:53:00,62.4,55.8,29.88,SE,135,11.0,13.0,79,0.00,,,0.00,meteohub,2013-06-14 11:53:00,
2013-06-14 06:58:00,62.6,55.6,29.88,SE,135,11.0,11.0,78,0.00,,,0.00,meteohub,2013-06-14 11:58:00,
2013-06-14 07:03:00,62.8,55.8,29.88,SE,135,11.0,14.0,78,0.00,,,0.00,meteohub,2013-06-14 12:03:00,
2013-06-14 07:09:00,63.0,55.9,29.88,SE,135,11.0,14.0,78,0.00,,,0.00,meteohub,2013-06-14 12:09:00,
2013-06-14 07:14:00,63.0,55.9,29.88,SE,135,11.0,14.0,78,0.00,,,0.00,meteohub,2013-06-14 12:14:00,
2013-06-14 07:19:00,63.1,56.1,29.88,SE,135,11.0,15.0,78,0.00,,,0.00,meteohub,2013-06-14 12:19:00,
2013-06-14 07:24:00,63.1,56.1,29.88,SE,135,14.0,15.0,78,0.00,,,0.00,meteohub,2013-06-14 12:24:00,
2013-06-14 07:29:00,63.5,56.5,29.88,SE,135,10.0,16.0,78,0.00,,,0.00,meteohub,2013-06-14 12:29:00,
2013-06-14 07:34:00,63.7,56.7,29.88,SE,135,12.0,16.0,78,0.00,,,0.00,meteohub,2013-06-14 12:34:00,
2013-06-14 07:39:00,63.9,56.5,29.88,SE,135,13.0,16.0,77,0.00,,,0.00,meteohub,2013-06-14 12:39:00,
2013-06-14 07:44:00,64.0,56.7,29.89,SE,135,12.0,15.0,77,0.00,,,0.00,meteohub,2013-06-14 12:44:00,
2013-06-14 07:49:00,64.4,56.7,29.89,SE,135,12.0,15.0,76,0.00,,,0.00,meteohub,2013-06-14 12:49:00,
2013-06-14 07:54:00,64.8,57.0,29.88,SE,135,14.0,15.0,76,0.00,,,0.00,meteohub,2013-06-14 12:54:00,
2013-06-14 07:59:00,64.9,57.2,29.88,SE,135,15.0,15.0,76,0.00,,,0.00,meteohub,2013-06-14 12:59:00,
2013-06-14 08:04:00,65.5,57.7,29.88,SE,135,16.0,16.0,76,0.00,,,0.00,meteohub,2013-06-14 13:04:00,
2013-06-14 08:09:00,67.5,58.8,29.88,SE,135,13.0,16.0,74,0.00,,,0.00,meteohub,2013-06-14 13:09:00,
2013-06-14 08:14:00,68.2,58.8,29.89,SE,135,13.0,16.0,72,0.00,,,0.00,meteohub,2013-06-14 13:14:00,
2013-06-14 08:19:00,67.6,57.9,29.89,SE,135,15.0,16.0,71,0.00,,,0.00,meteohub,2013-06-14 13:19:00,
2013-06-14 08:25:00,67.6,58.3,29.89,SE,135,15.0,18.0,72,0.00,,,0.00,meteohub,2013-06-14 13:25:00,
2013-06-14 08:30:00,69.8,59.2,29.88,SE,135,16.0,18.0,69,0.00,,,0.00,meteohub,2013-06-14 13:30:00,
2013-06-14 08:35:00,69.3,58.6,29.89,SE,135,15.0,18.0,69,0.00,,,0.00,meteohub,2013-06-14 13:35:00,
2013-06-14 08:40:00,68.5,57.9,29.88,SE,135,16.0,21.0,69,0.00,,,0.00,meteohub,2013-06-14 13:40:00,
2013-06-14 08:45:00,68.0,57.9,29.89,SE,135,15.0,21.0,70,0.00,,,0.00,meteohub,2013-06-14 13:45:00,
2013-06-14 08:50:00,68.2,58.1,29.88,SE,135,17.0,21.0,70,0.00,,,0.00,meteohub,2013-06-14 13:50:00,
2013-06-14 08:55:00,69.8,59.2,29.88,SE,135,17.0,21.0,69,0.00,,,0.00,meteohub,2013-06-14 13:55:00,
2013-06-14 09:01:00,70.7,59.2,29.87,SE,135,20.0,20.0,67,0.00,,,0.00,meteohub,2013-06-14 14:01:00,
2013-06-14 09:06:00,71.1,59.2,29.87,SE,135,22.0,23.0,66,0.00,,,0.00,meteohub,2013-06-14 14:06:00,
2013-06-14 09:11:00,71.2,59.4,29.87,SE,135,20.0,23.0,66,0.00,,,0.00,meteohub,2013-06-14 14:11:00,
2013-06-14 09:16:00,71.1,58.6,29.86,SE,135,21.0,23.0,65,0.00,,,0.00,meteohub,2013-06-14 14:16:00,
2013-06-14 09:21:00,71.4,59.0,29.86,SE,135,23.0,25.0,65,0.00,,,0.00,meteohub,2013-06-14 14:21:00,
2013-06-14 09:27:00,71.6,58.8,29.87,SE,135,17.0,25.0,64,0.00,,,0.00,meteohub,2013-06-14 14:27:00,
2013-06-14 09:32:00,72.1,59.4,29.86,SE,135,19.0,25.0,64,0.00,,,0.00,meteohub,2013-06-14 14:32:00,
2013-06-14 09:37:00,72.1,58.8,29.87,SE,135,17.0,23.0,63,0.00,,,0.00,meteohub,2013-06-14 14:37:00,
2013-06-14 09:42:00,72.9,59.5,29.86,SE,135,22.0,22.0,63,0.00,,,0.00,meteohub,2013-06-14 14:42:00,
2013-06-14 09:47:00,73.0,58.8,29.87,SE,135,22.0,22.0,61,0.00,,,0.00,meteohub,2013-06-14 14:47:00,
2013-06-14 09:53:00,73.9,60.6,29.87,SE,135,21.0,22.0,63,0.00,,,0.00,meteohub,2013-06-14 14:53:00,
2013-06-14 09:58:00,74.3,59.5,29.86,SE,135,23.0,23.0,60,0.00,,,0.00,meteohub,2013-06-14 14:58:00,
2013-06-14 10:03:00,73.8,59.0,29.86,SE,135,21.0,23.0,60,0.00,,,0.00,meteohub,2013-06-14 15:03:00,
2013-06-14 10:08:00,73.2,58.5,29.86,SE,135,17.0,23.0,60,0.00,,,0.00,meteohub,2013-06-14 15:08:00,
2013-06-14 10:13:00,72.9,57.7,29.85,SE,135,21.0,26.0,59,0.00,,,0.00,meteohub,2013-06-14 15:13:00,
2013-06-14 10:19:00,72.9,57.7,29.85,SE,135,23.0,26.0,59,0.00,,,0.00,meteohub,2013-06-14 15:19:00,
2013-06-14 10:24:00,73.6,58.3,29.84,SE,135,28.0,28.0,59,0.00,,,0.00,meteohub,2013-06-14 15:24:00,
2013-06-14 10:29:00,73.9,58.6,29.85,SE,135,23.0,28.0,59,0.00,,,0.00,meteohub,2013-06-14 15:29:00,
2013-06-14 10:34:00,74.5,59.2,29.85,SE,135,26.0,28.0,59,0.00,,,0.00,meteohub,2013-06-14 15:34:00,
2013-06-14 10:39:00,74.3,58.6,29.84,SE,135,22.0,28.0,58,0.00,,,0.00,meteohub,2013-06-14 15:39:00,
2013-06-14 10:44:00,74.5,59.2,29.84,SE,135,22.0,26.0,59,0.00,,,0.00,meteohub,2013-06-14 15:44:00,
2013-06-14 10:49:00,74.1,57.9,29.84,SE,135,25.0,26.0,57,0.00,,,0.00,meteohub,2013-06-14 15:49:00,
2013-06-14 10:54:00,73.9,57.7,29.84,SE,135,24.0,27.0,57,0.00,,,0.00,meteohub,2013-06-14 15:54:00,
2013-06-14 11:00:00,75.7,59.0,29.84,SE,135,30.0,30.0,56,0.00,,,0.00,meteohub,2013-06-14 16:00:00,
2013-06-14 11:05:00,76.6,59.2,29.83,SE,135,26.0,30.0,55,0.00,,,0.00,meteohub,2013-06-14 16:05:00,
2013-06-14 11:10:00,75.9,57.6,29.83,SE,135,27.0,31.0,53,0.00,,,0.00,meteohub,2013-06-14 16:10:00,
2013-06-14 11:16:00,77.2,58.3,29.83,South,180,28.0,31.0,52,0.00,,,0.00,meteohub,2013-06-14 16:16:00,
2013-06-14 11:21:00,77.4,58.3,29.83,SE,135,27.0,35.0,52,0.00,,,0.00,meteohub,2013-06-14 16:21:00,
2013-06-14 11:26:00,76.1,57.7,29.83,SE,135,27.0,35.0,53,0.00,,,0.00,meteohub,2013-06-14 16:26:00,
2013-06-14 11:31:00,75.0,57.7,29.82,South,180,27.0,30.0,55,0.00,,,0.00,meteohub,2013-06-14 16:31:00,
2013-06-14 11:36:00,74.3,57.0,29.82,SE,135,29.0,30.0,55,0.00,,,0.00,meteohub,2013-06-14 16:36:00,
2013-06-14 11:41:00,73.9,57.7,29.82,South,180,30.0,30.0,57,0.00,,,0.00,meteohub,2013-06-14 16:41:00,
2013-06-14 11:47:00,73.8,57.6,29.81,South,180,27.0,30.0,57,0.00,,,0.00,meteohub,2013-06-14 16:47:00,
2013-06-14 11:52:00,75.9,59.5,29.81,SE,135,27.0,30.0,57,0.00,,,0.00,meteohub,2013-06-14 16:52:00,
2013-06-14 11:57:00,76.8,59.0,29.81,SE,135,34.0,34.0,54,0.00,,,0.00,meteohub,2013-06-14 16:57:00,
2013-06-14 12:02:00,77.4,58.8,29.82,SE,135,28.0,34.0,53,0.00,,,0.00,meteohub,2013-06-14 17:02:00,
2013-06-14 12:07:00,77.4,59.4,29.81,SE,135,23.0,34.0,54,0.00,,,0.00,meteohub,2013-06-14 17:07:00,
2013-06-14 12:12:00,77.2,58.6,29.81,SE,135,25.0,34.0,53,0.00,,,0.00,meteohub,2013-06-14 17:12:00,
2013-06-14 12:17:00,76.8,59.4,29.82,SE,135,26.0,33.0,55,0.00,,,0.00,meteohub,2013-06-14 17:17:00,
2013-06-14 12:23:00,77.2,59.7,29.82,South,180,24.0,31.0,55,0.00,,,0.00,meteohub,2013-06-14 17:23:00,
2013-06-14 12:28:00,76.8,59.0,29.82,SE,135,27.0,31.0,54,0.00,,,0.00,meteohub,2013-06-14 17:28:00,
2013-06-14 12:33:00,75.9,58.6,29.82,SE,135,30.0,33.0,55,0.00,,,0.00,meteohub,2013-06-14 17:33:00,
2013-06-14 12:38:00,75.4,58.1,29.82,SE,135,24.0,33.0,55,0.00,,,0.00,meteohub,2013-06-14 17:38:00,
2013-06-14 12:43:00,74.8,58.6,29.84,South,180,25.0,34.0,57,0.00,,,0.00,meteohub,2013-06-14 17:43:00,
2013-06-14 12:48:00,74.5,58.8,29.84,SE,135,21.0,34.0,58,0.00,,,0.00,meteohub,2013-06-14 17:48:00,
2013-06-14 12:53:00,74.3,59.0,29.85,SE,135,21.0,34.0,59,0.00,,,0.00,meteohub,2013-06-14 17:53:00,
2013-06-14 12:58:00,73.9,58.6,29.85,SSE,158,21.0,27.0,59,0.00,,,0.00,meteohub,2013-06-14 17:58:00,
2013-06-14 13:03:00,73.8,58.5,29.85,South,180,18.0,27.0,59,0.00,,,0.00,meteohub,2013-06-14 18:03:00,
2013-06-14 13:09:00,73.6,58.8,29.85,SE,135,22.0,23.0,60,0.00,,,0.00,meteohub,2013-06-14 18:09:00,
2013-06-14 13:14:00,73.4,58.3,29.84,South,180,22.0,23.0,59,0.00,,,0.00,meteohub,2013-06-14 18:14:00,
2013-06-14 13:19:00,73.2,58.1,29.84,SSE,158,23.0,25.0,59,0.00,,,0.00,meteohub,2013-06-14 18:19:00,
2013-06-14 13:24:00,73.0,58.3,29.83,South,180,22.0,25.0,60,0.00,,,0.00,meteohub,2013-06-14 18:24:00,
2013-06-14 13:30:00,72.9,58.1,29.83,SE,135,20.0,25.0,60,0.00,,,0.00,meteohub,2013-06-14 18:30:00,
2013-06-14 13:35:00,72.7,58.5,29.80,SE,135,27.0,27.0,61,0.00,,,0.00,meteohub,2013-06-14 18:35:00,
2013-06-14 13:40:00,73.0,58.3,29.79,SSE,158,27.0,32.0,60,0.00,,,0.00,meteohub,2013-06-14 18:40:00,
2013-06-14 13:45:00,73.9,60.1,29.78,SE,135,34.0,34.0,62,0.00,,,0.00,meteohub,2013-06-14 18:45:00,
2013-06-14 13:51:00,75.7,60.4,29.78,SE,135,34.0,34.0,59,0.00,,,0.00,meteohub,2013-06-14 18:51:00,
2013-06-14 13:56:00,77.4,61.3,29.78,SE,135,28.0,34.0,58,0.00,,,0.00,meteohub,2013-06-14 18:56:00,
2013-06-14 14:01:00,79.0,62.4,29.77,SE,135,23.0,34.0,57,0.00,,,0.00,meteohub,2013-06-14 19:01:00,
2013-06-14 14:07:00,79.2,61.2,29.77,SE,135,36.0,36.0,54,0.00,,,0.00,meteohub,2013-06-14 19:07:00,
2013-06-14 14:12:00,78.8,61.3,29.76,SE,135,30.0,36.0,55,0.00,,,0.00,meteohub,2013-06-14 19:12:00,
2013-06-14 14:17:00,79.0,61.0,29.76,SE,135,31.0,36.0,54,0.00,,,0.00,meteohub,2013-06-14 19:17:00,
2013-06-14 14:22:00,79.3,61.2,29.77,SE,135,32.0,36.0,54,0.00,,,0.00,meteohub,2013-06-14 19:22:00,
2013-06-14 14:27:00,79.3,61.2,29.76,SE,135,27.0,33.0,54,0.00,,,0.00,meteohub,2013-06-14 19:27:00,
2013-06-14 14:32:00,78.8,60.8,29.76,SE,135,30.0,39.0,54,0.00,,,0.00,meteohub,2013-06-14 19:32:00,
2013-06-14 14:37:00,79.0,61.5,29.76,South,180,34.0,39.0,55,0.00,,,0.00,meteohub,2013-06-14 19:37:00,
2013-06-14 14:42:00,79.3,61.7,29.76,SE,135,29.0,37.0,55,0.00,,,0.00,meteohub,2013-06-14 19:42:00,
2013-06-14 14:48:00,79.9,61.7,29.76,SE,135,28.0,37.0,54,0.00,,,0.00,meteohub,2013-06-14 19:48:00,
2013-06-14 14:53:00,79.9,61.7,29.75,SE,135,33.0,37.0,54,0.00,,,0.00,meteohub,2013-06-14 19:53:00,
2013-06-14 14:58:00,79.5,60.8,29.76,SE,135,26.0,35.0,53,0.00,,,0.00,meteohub,2013-06-14 19:58:00,
2013-06-14 15:03:00,80.1,61.9,29.75,SE,135,35.0,36.0,54,0.00,,,0.00,meteohub,2013-06-14 20:03:00,
2013-06-14 15:08:00,79.9,60.6,29.75,SE,135,27.0,36.0,52,0.00,,,0.00,meteohub,2013-06-14 20:08:00,
2013-06-14 15:13:00,79.9,61.2,29.75,SE,135,30.0,36.0,53,0.00,,,0.00,meteohub,2013-06-14 20:13:00,
2013-06-14 15:19:00,80.4,61.2,29.75,SE,135,26.0,40.0,52,0.00,,,0.00,meteohub,2013-06-14 20:19:00,
2013-06-14 15:24:00,81.0,61.7,29.75,SE,135,31.0,40.0,52,0.00,,,0.00,meteohub,2013-06-14 20:24:00,
2013-06-14 15:29:00,81.0,61.2,29.75,SE,135,33.0,40.0,51,0.00,,,0.00,meteohub,2013-06-14 20:29:00,
2013-06-14 15:34:00,81.3,62.1,29.75,SE,135,29.0,38.0,52,0.00,,,0.00,meteohub,2013-06-14 20:34:00,
2013-06-14 15:39:00,81.3,61.5,29.74,SE,135,33.0,38.0,51,0.00,,,0.00,meteohub,2013-06-14 20:39:00,
2013-06-14 15:44:00,81.0,61.2,29.75,SE,135,34.0,38.0,51,0.00,,,0.00,meteohub,2013-06-14 20:44:00,
2013-06-14 15:50:00,81.1,61.3,29.74,SE,135,30.0,36.0,51,0.00,,,0.00,meteohub,2013-06-14 20:50:00,
2013-06-14 15:55:00,81.5,61.7,29.73,SE,135,34.0,36.0,51,0.00,,,0.00,meteohub,2013-06-14 20:55:00,
2013-06-14 16:00:00,81.3,61.5,29.73,SE,135,28.0,35.0,51,0.00,,,0.00,meteohub,2013-06-14 21:00:00,
2013-06-14 16:06:00,81.9,61.9,29.74,SE,135,24.0,35.0,51,0.00,,,0.00,meteohub,2013-06-14 21:06:00,
2013-06-14 16:11:00,82.2,62.8,29.73,SE,135,33.0,35.0,52,0.00,,,0.00,meteohub,2013-06-14 21:11:00,
2013-06-14 16:16:00,81.7,61.9,29.73,SE,135,34.0,35.0,51,0.00,,,0.00,meteohub,2013-06-14 21:16:00,
2013-06-14 16:21:00,81.9,61.9,29.73,SSE,158,31.0,34.0,51,0.00,,,0.00,meteohub,2013-06-14 21:21:00,
2013-06-14 16:26:00,82.4,62.4,29.73,SE,135,28.0,34.0,51,0.00,,,0.00,meteohub,2013-06-14 21:26:00,
2013-06-14 16:32:00,82.6,62.1,29.72,SE,135,32.0,34.0,50,0.00,,,0.00,meteohub,2013-06-14 21:32:00,
2013-06-14 16:37:00,82.2,61.7,29.72,South,180,27.0,36.0,50,0.00,,,0.00,meteohub,2013-06-14 21:37:00,
2013-06-14 16:42:00,82.8,63.3,29.72,SE,135,27.0,36.0,52,0.00,,,0.00,meteohub,2013-06-14 21:42:00,
2013-06-14 16:47:00,82.8,62.8,29.72,SE,135,21.0,34.0,51,0.00,,,0.00,meteohub,2013-06-14 21:47:00,
2013-06-14 16:52:00,82.8,62.2,29.71,SE,135,27.0,34.0,50,0.00,,,0.00,meteohub,2013-06-14 21:52:00,
2013-06-14 16:57:00,82.6,62.6,29.70,SSE,158,29.0,34.0,51,0.00,,,0.00,meteohub,2013-06-14 21:57:00,
2013-06-14 17:02:00,82.6,62.6,29.71,SE,135,30.0,34.0,51,0.00,,,0.00,meteohub,2013-06-14 22:02:00,
2013-06-14 17:07:00,82.6,62.6,29.71,SE,135,29.0,34.0,51,0.00,,,0.00,meteohub,2013-06-14 22:07:00,
2013-06-14 17:12:00,82.0,62.1,29.71,South,180,30.0,31.0,51,0.00,,,0.00,meteohub,2013-06-14 22:12:00,
2013-06-14 17:17:00,82.4,63.0,29.71,South,180,31.0,31.0,52,0.00,,,0.00,meteohub,2013-06-14 22:17:00,
2013-06-14 17:22:00,82.6,62.6,29.71,South,180,23.0,31.0,51,0.00,,,0.00,meteohub,2013-06-14 22:22:00,
2013-06-14 17:27:00,82.2,61.7,29.71,SSE,158,27.0,34.0,50,0.00,,,0.00,meteohub,2013-06-14 22:27:00,
2013-06-14 17:33:00,80.6,61.3,29.70,South,180,31.0,34.0,52,0.00,,,0.00,meteohub,2013-06-14 22:33:00,
2013-06-14 17:38:00,80.6,61.3,29.70,South,180,27.0,34.0,52,0.00,,,0.00,meteohub,2013-06-14 22:38:00,
2013-06-14 17:43:00,80.1,61.9,29.71,SSE,158,26.0,32.0,54,0.00,,,0.00,meteohub,2013-06-14 22:43:00,
2013-06-14 17:48:00,80.2,62.1,29.71,SE,135,26.0,31.0,54,0.00,,,0.00,meteohub,2013-06-14 22:48:00,
2013-06-14 17:53:00,80.2,62.1,29.71,SE,135,26.0,31.0,54,0.00,,,0.00,meteohub,2013-06-14 22:53:00,
2013-06-14 17:58:00,80.1,62.4,29.72,SSE,158,22.0,30.0,55,0.00,,,0.00,meteohub,2013-06-14 22:58:00,
2013-06-14 18:03:00,79.2,61.5,29.72,SE,135,25.0,30.0,55,0.00,,,0.00,meteohub,2013-06-14 23:03:00,
2013-06-14 18:08:00,78.6,62.1,29.71,SE,135,30.0,30.0,57,0.00,,,0.00,meteohub,2013-06-14 23:08:00,
2013-06-14 18:13:00,79.2,62.1,29.71,South,180,22.0,30.0,56,0.00,,,0.00,meteohub,2013-06-14 23:13:00,
2013-06-14 18:18:00,79.3,61.2,29.71,South,180,24.0,30.0,54,0.00,,,0.00,meteohub,2013-06-14 23:18:00,
2013-06-14 18:24:00,79.0,61.0,29.72,SE,135,25.0,30.0,54,0.00,,,0.00,meteohub,2013-06-14 23:24:00,
2013-06-14 18:29:00,78.8,60.8,29.71,South,180,23.0,30.0,54,0.00,,,0.00,meteohub,2013-06-14 23:29:00,
2013-06-14 18:34:00,78.6,61.2,29.72,South,180,21.0,30.0,55,0.00,,,0.00,meteohub,2013-06-14 23:34:00,
2013-06-14 18:39:00,78.1,60.6,29.72,SSE,158,21.0,30.0,55,0.00,,,0.00,meteohub,2013-06-14 23:39:00,
2013-06-14 18:44:00,78.4,61.0,29.72,SE,135,21.0,28.0,55,0.00,,,0.00,meteohub,2013-06-14 23:44:00,
2013-06-14 18:49:00,78.6,61.2,29.72,South,180,26.0,28.0,55,0.00,,,0.00,meteohub,2013-06-14 23:49:00,
2013-06-14 18:55:00,79.0,61.0,29.72,SSE,158,24.0,28.0,54,0.00,,,0.00,meteohub,2013-06-14 23:55:00,
2013-06-14 19:00:00,78.8,60.8,29.72,SSE,158,22.0,28.0,54,0.00,,,0.00,meteohub,2013-06-15 00:00:00,
2013-06-14 19:05:00,78.4,61.0,29.71,South,180,23.0,28.0,55,0.00,,,0.00,meteohub,2013-06-15 00:05:00,
2013-06-14 19:10:00,78.3,60.8,29.71,South,180,27.0,28.0,55,0.00,,,0.00,meteohub,2013-06-15 00:10:00,
2013-06-14 19:15:00,78.4,61.5,29.72,South,180,22.0,27.0,56,0.00,,,0.00,meteohub,2013-06-15 00:15:00,
2013-06-14 19:20:00,78.4,61.0,29.72,SE,135,24.0,27.0,55,0.00,,,0.00,meteohub,2013-06-15 00:20:00,
2013-06-14 19:25:00,77.7,60.8,29.72,SE,135,21.0,24.0,56,0.00,,,0.00,meteohub,2013-06-15 00:25:00,
2013-06-14 19:30:00,76.6,60.8,29.72,SE,135,19.0,26.0,58,0.00,,,0.00,meteohub,2013-06-15 00:30:00,
2013-06-14 19:35:00,77.0,60.6,29.71,South,180,21.0,26.0,57,0.00,,,0.00,meteohub,2013-06-15 00:35:00,
2013-06-14 19:40:00,76.6,60.8,29.71,South,180,21.0,26.0,58,0.00,,,0.00,meteohub,2013-06-15 00:40:00,
2013-06-14 19:45:00,76.5,61.0,29.71,SSE,158,20.0,23.0,59,0.00,,,0.00,meteohub,2013-06-15 00:45:00,
2013-06-14 19:50:00,75.9,61.0,29.70,SSE,158,21.0,23.0,60,0.00,,,0.00,meteohub,2013-06-15 00:50:00,
2013-06-14 19:56:00,75.2,60.8,29.71,SE,135,21.0,23.0,61,0.00,,,0.00,meteohub,2013-06-15 00:56:00,
2013-06-14 20:01:00,74.8,61.0,29.70,South,180,19.0,22.0,62,0.00,,,0.00,meteohub,2013-06-15 01:01:00,
2013-06-14 20:06:00,74.7,60.8,29.70,SE,135,17.0,22.0,62,0.00,,,0.00,meteohub,2013-06-15 01:06:00,
2013-06-14 20:11:00,74.5,60.6,29.70,South,180,18.0,22.0,62,0.00,,,0.00,meteohub,2013-06-15 01:11:00,
2013-06-14 20:16:00,74.1,60.3,29.70,South,180,21.0,21.0,62,0.00,,,0.00,meteohub,2013-06-15 01:16:00,
2013-06-14 20:21:00,73.9,60.6,29.70,SE,135,18.0,21.0,63,0.00,,,0.00,meteohub,2013-06-15 01:21:00,
2013-06-14 20:26:00,73.8,60.4,29.70,SE,135,17.0,21.0,63,0.00,,,0.00,meteohub,2013-06-15 01:26:00,
2013-06-14 20:31:00,73.6,60.3,29.72,South,180,20.0,21.0,63,0.00,,,0.00,meteohub,2013-06-15 01:31:00,
2013-06-14 20:36:00,73.6,60.3,29.71,South,180,17.0,20.0,63,0.00,,,0.00,meteohub,2013-06-15 01:36:00,
2013-06-14 20:41:00,73.4,60.1,29.72,South,180,18.0,21.0,63,0.00,,,0.00,meteohub,2013-06-15 01:41:00,
2013-06-14 20:46:00,73.4,60.4,29.72,SE,135,18.0,21.0,64,0.00,,,0.00,meteohub,2013-06-15 01:46:00,
2013-06-14 20:51:00,73.2,60.3,29.72,SE,135,18.0,21.0,64,0.00,,,0.00,meteohub,2013-06-15 01:51:00,
2013-06-14 20:56:00,73.0,60.1,29.72,SE,135,17.0,21.0,64,0.00,,,0.00,meteohub,2013-06-15 01:56:00,
2013-06-14 21:01:00,72.9,59.9,29.73,South,180,17.0,21.0,64,0.00,,,0.00,meteohub,2013-06-15 02:01:00,
2013-06-14 21:07:00,72.9,60.4,29.73,SSE,158,15.0,18.0,65,0.00,,,0.00,meteohub,2013-06-15 02:07:00,
2013-06-14 21:12:00,72.9,60.4,29.73,SE,135,19.0,19.0,65,0.00,,,0.00,meteohub,2013-06-15 02:12:00,
2013-06-14 21:17:00,72.7,60.3,29.75,South,180,22.0,22.0,65,0.00,,,0.00,meteohub,2013-06-15 02:17:00,
2013-06-14 21:22:00,72.1,60.6,29.75,SE,135,15.0,22.0,67,0.00,,,0.00,meteohub,2013-06-15 02:22:00,
2013-06-14 21:27:00,71.4,60.8,29.75,South,180,19.0,22.0,69,0.00,,,0.00,meteohub,2013-06-15 02:27:00,
2013-06-14 21:32:00,71.1,61.2,29.75,SE,135,21.0,22.0,71,0.00,,,0.00,meteohub,2013-06-15 02:32:00,
2013-06-14 21:37:00,70.7,60.8,29.74,SE,135,17.0,22.0,71,0.00,,,0.00,meteohub,2013-06-15 02:37:00,
2013-06-14 21:42:00,70.3,60.8,29.74,SE,135,14.0,23.0,72,0.00,,,0.00,meteohub,2013-06-15 02:42:00,
2013-06-14 21:47:00,70.0,61.0,29.74,SSE,158,12.0,23.0,73,0.00,,,0.00,meteohub,2013-06-15 02:47:00,
2013-06-14 21:52:00,69.8,61.2,29.74,SE,135,12.0,19.0,74,0.00,,,0.00,meteohub,2013-06-15 02:52:00,
2013-06-14 21:57:00,69.8,61.2,29.74,SE,135,11.0,15.0,74,0.00,,,0.00,meteohub,2013-06-15 02:57:00,
2013-06-14 22:03:00,69.8,61.5,29.74,SE,135,8.0,15.0,75,0.00,,,0.00,meteohub,2013-06-15 03:03:00,
2013-06-14 22:08:00,69.8,61.5,29.73,SE,135,8.0,14.0,75,0.00,,,0.00,meteohub,2013-06-15 03:08:00,
2013-06-14 22:13:00,69.8,61.5,29.74,SE,135,8.0,11.0,75,0.00,,,0.00,meteohub,2013-06-15 03:13:00,
2013-06-14 22:18:00,69.8,61.5,29.75,SE,135,7.0,10.0,75,0.00,,,0.00,meteohub,2013-06-15 03:18:00,
2013-06-14 22:23:00,69.6,61.7,29.74,SE,135,9.0,9.0,76,0.00,,,0.00,meteohub,2013-06-15 03:23:00,
2013-06-14 22:29:00,69.6,61.7,29.74,SE,135,9.0,9.0,76,0.00,,,0.00,meteohub,2013-06-15 03:29:00,
2013-06-14 22:34:00,69.4,61.9,29.74,SE,135,8.0,10.0,77,0.00,,,0.00,meteohub,2013-06-15 03:34:00,
2013-06-14 22:39:00,69.4,61.9,29.73,SE,135,9.0,10.0,77,0.00,,,0.00,meteohub,2013-06-15 03:39:00,
2013-06-14 22:44:00,69.3,61.7,29.73,SE,135,8.0,10.0,77,0.00,,,0.00,meteohub,2013-06-15 03:44:00,
2013-06-14 22:49:00,69.3,62.1,29.73,SE,135,8.0,10.0,78,0.00,,,0.00,meteohub,2013-06-15 03:49:00,
2013-06-14 22:55:00,69.3,62.1,29.73,SE,135,8.0,10.0,78,0.00,,,0.00,meteohub,2013-06-15 03:55:00,
2013-06-14 23:00:00,69.3,62.1,29.72,SE,135,7.0,10.0,78,0.00,,,0.00,meteohub,2013-06-15 04:00:00,
2013-06-14 23:01:00,69.3,62.1,29.73,SE,135,9.0,10.0,78,0.00,,,0.00,meteohub,2013-06-15 04:01:00,
2013-06-14 23:02:00,69.4,62.2,29.72,SE,135,7.0,10.0,78,0.00,,,0.00,meteohub,2013-06-15 04:02:00,
2013-06-14 23:03:00,69.3,62.1,29.73,SE,135,8.0,10.0,78,0.00,,,0.00,meteohub,2013-06-15 04:03:00,
2013-06-14 23:08:00,69.4,62.2,29.72,SE,135,8.0,11.0,78,0.00,,,0.00,meteohub,2013-06-15 04:08:00,
2013-06-14 23:13:00,69.4,62.2,29.72,SE,135,10.0,11.0,78,0.00,,,0.00,meteohub,2013-06-15 04:13:00,
2013-06-14 23:19:00,69.4,61.9,29.73,SE,135,7.0,9.0,77,0.00,,,0.00,meteohub,2013-06-15 04:19:00,
2013-06-14 23:24:00,69.4,61.9,29.73,SE,135,10.0,10.0,77,0.00,,,0.00,meteohub,2013-06-15 04:24:00,
2013-06-14 23:29:00,69.4,62.2,29.73,SE,135,10.0,10.0,78,0.00,,,0.00,meteohub,2013-06-15 04:29:00,
2013-06-14 23:34:00,69.3,62.1,29.73,SE,135,10.0,11.0,78,0.00,,,0.00,meteohub,2013-06-15 04:34:00,
2013-06-14 23:40:00,69.3,62.1,29.73,SE,135,10.0,12.0,78,0.00,,,0.00,meteohub,2013-06-15 04:40:00,
2013-06-14 23:45:00,69.1,61.9,29.72,SE,135,8.0,12.0,78,0.00,,,0.00,meteohub,2013-06-15 04:45:00,
2013-06-14 23:50:00,69.1,61.9,29.73,SE,135,11.0,12.0,78,0.00,,,0.00,meteohub,2013-06-15 04:50:00,
2013-06-14 23:55:00,69.1,61.9,29.73,SE,135,11.0,12.0,78,0.00,,,0.00,meteohub,2013-06-15 04:55:00,